Riceton, Canada
Current Conditions -  °F | °C
As of 4:00 AM on Tuesday 27 Jan 2015 (Local Time) from CYQR Reporting Station
Clear Clear  
Wind Chill: 20°   Ceiling: Unl
Heat Index: 28°   Visibility: 15mi
Dew Point: 27°   Wind: 9mph
Humidity: 93%   Direction: 110°ESE
Pressure: 29.8"   Gusts: NA
Location:  50.1°N, 104.32°W
Report Text: CYQR 271000Z 11008KT 15SM SKC M02/M03 A2980 RMK SLP116
Loading
Personal Weather Stations






























Interactive Weather Map New forecast layout! Learn more

10-Day Weather Forecast

Advertisements
Track Severe Weather on mobile